Tiempo atmosférico en la estación meteorológica de Cádiz, Cadiz (1 m.)



Fecha
DESCASC
Temp. máxima en grados centígrados (hora)
DESCASC
Temp. mínima en grados centígrados (hora)
DESCASC
Temp. media en grados centígrados
DESCASC
Racha de viento máxima en m/sg (hora)
DESCASC
Velocidad máxima media en intervalos de 10 minutos(hora)
DESCASC
Precipitaciones diarias en mm
DESCASC
Precipitaciones de 00:00 a 06:00 en mm
DESCASC
Precipitaciones de 06:00 a 12:00 en mm
DESCASC
Precipitaciones de 12:00 a 18:00 en mm
DESCASC
Precipitaciones de 18:00 a 24:00 en mm
DESCASC
20-09-2018 29.9 (16:30) 22.9 (07:50) 26.4 8.61 (10:40) 6.67 (10:40) 0 0 0 0 0
19-09-2018 28.2 (18:30) 22.6 (08:40) 25.4 7.22 (15:20) 5 (15:20) 0 0 0 0 0
18-09-2018 27.4 (16:00) 23.9 (06:50) 25.6 6.39 (14:20) 4.17 (15:10) 0 0 0 0 0
17-09-2018 30.6 (15:20) 22.9 (08:30) 26.8 9.72 (03:40) 7.22 (12:00) 0 0 0 0 0
16-09-2018 30.8 (14:50) 21.5 (00:00) 26.1 11.67 (22:50) 8.61 (22:50) 0 0 0 0 0
15-09-2018 28.1 (14:40) 20.5 (00:00) 24.3 6.67 (15:50) 4.72 (00:10) 0 0 0 0 0
14-09-2018 25.8 (12:30) 21 (00:00) 23.4 7.78 (22:30) 5 (21:20) 5.1 0 0 0.8 4.3
13-09-2018 26.7 (17:00) 22.5 (00:00) 24.6 6.67 (14:50) 3.89 (14:50) 0 0 0 0 0
12-09-2018 28.9 (12:00) 23.7 (00:00) 26.3 13.33 (02:40) 9.17 (01:00) 0 0 0 0 0
11-09-2018 30.2 (15:30) 23.9 (00:00) 27.1 16.67 (19:40) 11.94 (19:40) 0 0 0 0 0
10-09-2018 31.6 (15:00) 20.9 (00:00) 26.3 15.28 (21:50) 10.83 (22:10) 0 0 0 0 0
09-09-2018 26.3 (17:00) 20.4 (00:00) 23.3 7.22 (18:20) 5 (18:20) 0.2 0.2 0 0 0
08-09-2018 24.8 (15:50) 20.9 (00:00) 22.8 6.67 (19:00) 4.44 (17:20) 0 0 0 0 0
07-09-2018 24.8 (14:50) 21.1 (00:00) 22.9 7.5 (17:00) 5 (17:00) 0 0 0 0 0
06-09-2018 25.1 (16:30) 21.4 (00:00) 23.3 6.39 (14:30) 4.17 (02:30) 0 0 0 0 0
05-09-2018 26.7 (16:10) 22.2 (00:00) 24.5 6.39 (21:40) 4.17 (21:40) 0 0 0 0 0
04-09-2018 26.8 (16:20) 22 (00:00) 24.4 6.67 (18:20) 3.61 (17:20) 0 0 0 0 0
03-09-2018 26.4 (15:40) 22.1 (00:00) 24.3 7.78 (00:30) 4.72 (00:40) 0 0 0 0 0
02-09-2018 32.6 (16:50) 23.2 (00:00) 27.9 15.28 (04:40) 11.11 (01:30) 0 0 0 0 0
01-09-2018 30.5 (15:40) 25 (00:00) 27.8 16.39 (13:20) 12.5 (13:20) 0 0 0 0 0
31-08-2018 31.5 (16:20) 23.9 (00:00) 27.7 14.17 (22:10) 10.83 (22:10) 0 0 0 0 0
30-08-2018 27.4 (19:40) 21.8 (00:00) 24.6 7.5 (23:59) 5 (23:59) 0 0 0 0 0
29-08-2018 26 (16:30) 21.8 (00:00) 23.9 8.61 (19:10) 5.56 (17:30) 0 0 0 0 0
28-08-2018 26.3 (12:20) 22.5 (00:00) 24.4 11.39 (00:10) 7.5 (00:10) 0 0 0 0 0
27-08-2018 32.2 (15:00) 23.4 (00:00) 27.8 16.67 (13:20) 12.5 (17:10) 0 0 0 0 0
26-08-2018 28.8 (18:30) 20.7 (00:00) 24.8 7.22 (23:30) 4.72 (21:50) 0.1 0 0.1 0 0
25-08-2018 27.6 (17:40) 22.6 (00:00) 25.1 7.22 (10:40) 4.44 (10:50) 0 0 0 0 0
24-08-2018 30.1 (18:40) 23 (00:00) 26.6 7.22 (13:50) 4.72 (14:40) 0 0 0 0 0

Gráficas

Temp. máximas Temp. mínimas Temp. medias Precipitaciones Rachas de viento máximas Velocidades máximas media en intervalos de 10 minutos

Datos horarios

Fecha y hora oficial Temperatura (ºC) Velocidad del viento (km/h) Dirección del viento Racha (km/h) Dirección de racha Precipitación (mm) Presión (hPa) Tendencia (hPa) Humedad (%)
2018-09-22 23:00:00 25.9 29 Sudeste 44 Sudeste 0 1019.3 0.8 47
2018-09-22 22:00:00 26.6 28 Sudeste 37 Sudeste 0 1019.1 0.9 43
2018-09-22 21:00:00 27.7 27 Este 39 Este 0 1018.6 0.6 40
2018-09-22 20:00:00 29.2 29 Este 40 Este 0 1018.5 0.3 38
2018-09-22 19:00:00 30.4 27 Este 49 Este 0 1018.2 -0.3 38
2018-09-22 18:00:00 30.9 34 Este 50 Sudeste 0 1018 -0.9 38
2018-09-22 17:00:00 31.1 34 Sudeste -- -- 0 1018.2 -1.3 38
2018-09-22 16:00:00 31.3 32 Sudeste 41 Sudeste 0 1018.5 -1.4 39
2018-09-22 15:00:00 31.6 28 Este 40 Este 0 1018.9 -1.1 38
2018-09-22 14:00:00 31.4 26 Este 34 Este 0 1019.5 -0.3 41
2018-09-22 13:00:00 31.1 14 Este 21 Sudeste 0 1019.9 0.6 43
2018-09-22 12:00:00 30.3 7 Este 16 Este 0 1020 1.1 45
2018-09-22 11:00:00 28.8 6 Este 17 Este 0 1019.8 1.4 46
2018-09-22 10:00:00 25.8 6 Este 12 Nordeste 0 1019.3 1.4 53
2018-09-22 09:00:00 23.4 5 Nordeste 9 Norte 0 1018.9 1.3 62
2018-09-22 08:00:00 23.1 5 Norte 20 Este 0 1018.4 0.9 64
2018-09-22 07:00:00 24.7 13 Este 19 Este 0 1017.9 0.2 59
2018-09-22 06:00:00 24.6 10 Este 16 Este 0 1017.6 -0.5 60
2018-09-22 05:00:00 24.5 11 Este 17 Este 0 1017.5 -0.7 57
2018-09-22 04:00:00 24.7 8 Este 17 Este 0 1017.7 -0.4 57
2018-09-22 03:00:00 25.2 9 Este 18 Este 0 1018.1 0.1 57
2018-09-22 02:00:00 25.4 12 Este 21 Este 0 1018.2 0.3 57
2018-09-22 01:00:00 25.5 15 Este 20 Este 0 1018.1 0.6 54
2018-09-22 00:00:00 24.7 4 Sudeste 9 Sudeste 0 1018 1.1 61
2018-09-21 23:00:00 24.6 6 Sudeste 13 Sur 0 1017.9 1.7 75
2018-09-21 22:00:00 25.2 0 Calma 5 Oeste 0 1017.5 1.3 79
2018-09-21 21:00:00 25.4 3 Sudoeste 13 Oeste 0 1016.9 0.7 77
2018-09-21 20:00:00 26.4 7 Oeste 15 Noroeste 0 1016.2 -0.4 71
2018-09-21 19:00:00 27 10 Oeste 17 Oeste 0 1016.2 -0.7 68
2018-09-21 18:00:00 27.7 12 Oeste 19 Oeste 0 1016.2 -1.2 62
2018-09-21 17:00:00 28 13 Oeste 20 Oeste 0 1016.6 -1.4 61
2018-09-21 16:00:00 27.1 14 Oeste 20 Oeste 0 1016.9 -1.5 62
2018-09-21 15:00:00 26.1 14 Oeste 22 Oeste 0 1017.4 -0.9 67
2018-09-21 14:00:00 27.4 14 Oeste 19 Oeste 0 1018 0 64
2018-09-21 13:00:00 27.4 8 Oeste 13 Oeste 0 1018.4 0.5 62
2018-09-21 12:00:00 27.8 2 Este 13 Sudeste 0 1018.3 0.7 63
2018-09-21 11:00:00 25.7 8 Sudeste 16 Este 0 1018 1.1 69
2018-09-21 10:00:00 24.7 11 Este 15 Este 0 1017.9 1.1 71
2018-09-21 09:00:00 22.9 6 Este 12 Este 0 1017.6 1 85
2018-09-21 08:00:00 22.3 8 Este 14 Este 0 1016.9 0.4 85
2018-09-21 07:00:00 22.1 6 Nordeste 14 Nordeste 0 1016.8 0.1 83
2018-09-21 06:00:00 22.1 9 Nordeste 14 Nordeste 0 1016.6 -0.4 80
2018-09-21 05:00:00 22.5 3 Nordeste 9 Nordeste 0 1016.5 -0.9 79
2018-09-21 04:00:00 22.8 6 Nordeste 12 Sudeste 0 1016.7 -1 79
2018-09-21 03:00:00 23.4 8 Este 21 Sudeste 0 1017 -0.7 79
2018-09-21 02:00:00 23.8 18 Sudeste 22 Sudeste 0 1017.4 0.1 77
2018-09-21 01:00:00 24.1 7 Este 19 Este 0 1017.7 0.6 73
2018-09-21 00:00:00 24.6 11 Este 19 Este 0 1017.7 1.1 71
2018-09-20 23:00:00 24.6 7 Este 17 Este 0 1017.3 1 72
2018-09-20 22:00:00 25.1 8 Nordeste 15 Noroeste 0 1017.1 1.2 73
2018-09-20 21:00:00 25.1 10 Norte 15 Oeste 0 1016.6 0.5 80
2018-09-20 20:00:00 26.7 5 Oeste 21 Sur 0 1016.3 0 71
2018-09-20 19:00:00 27.5 12 Sur 22 Sur 0 1015.9 -0.9 67
2018-09-20 18:00:00 28.5 14 Sur 29 Sur 0 1016.1 -1.2 60
2018-09-20 17:00:00 28.5 15 Sur 28 Sur 0 1016.3 -1.7 59
2018-09-20 16:00:00 28.6 15 Sur 28 Sur 0 1016.8 -1.8 58
2018-09-20 15:00:00 28.5 14 Sur 24 Sur 0 1017.3 -1.3 63
2018-09-20 14:00:00 28.5 10 Sur 17 Sur 0 1018 -0.7 61
2018-09-20 13:00:00 28.6 9 Sudoeste 23 Sudeste 0 1018.6 0.1 59
2018-09-20 12:00:00 28.2 15 Este 26 Este 0 1018.6 0.3 59
2018-09-20 11:00:00 26.9 23 Este 31 Este 0 1018.7 0.8 66
2018-09-20 10:00:00 25.3 7 Este 16 Este 0 1018.5 0.7 73
2018-09-20 09:00:00 23.5 9 Nordeste 14 Nordeste 0 1018.3 0.7 75
2018-09-20 08:00:00 22.9 10 Nordeste 17 Este 0 1017.9 0.2 76
2018-09-20 07:00:00 23.4 8 Nordeste 17 Este 0 1017.8 -0.3 74
2018-09-20 06:00:00 24 16 Este 23 Este 0 1017.6 -1 75
2018-09-20 05:00:00 24 13 Sudeste 18 Este 0 1017.7 -0.9 73
2018-09-20 04:00:00 23.8 4 Este 11 Este 0 1018.1 -0.6 75
2018-09-20 03:00:00 24 9 Este 17 Este 0 1018.6 -0.1 76
2018-09-20 02:00:00 24.2 14 Este 19 Sudeste 0 1018.6 -0.1 75
2018-09-20 01:00:00 24.5 10 Sudeste 15 Sudeste 0 1018.7 -0.1 74
2018-09-20 00:00:00 24.5 5 Sudeste 14 Este 0 1018.7 0.7 73
2018-09-19 23:00:00 24.7 13 Este 16 Este 0 1018.7 0.9 77
2018-09-19 22:00:00 24.7 0 Calma 5 Sudoeste 0 1018.8 1.4 83
2018-09-19 21:00:00 25 6 Oeste 15 Oeste 0 1018 0.7 81
2018-09-19 20:00:00 25.8 11 Oeste 19 Oeste 0 1017.8 0.2 77
2018-09-19 19:00:00 26.9 11 Oeste 17 Oeste 0 1017.4 -0.5 69
2018-09-19 18:00:00 27.3 10 Oeste 18 Oeste 0 1017.3 -1.1 67
2018-09-19 17:00:00 26.7 12 Oeste 22 Oeste 0 1017.6 -1.1 73
2018-09-19 16:00:00 27.3 13 Oeste 26 Oeste 0 1017.9 -0.8 67
2018-09-19 15:00:00 27 14 Oeste 22 Sudoeste 0 1018.4 -0.5 66
2018-09-19 14:00:00 26.5 12 Oeste 18 Oeste 0 1018.7 0.1 68
2018-09-19 13:00:00 27.4 10 Oeste 15 Sudoeste 0 1018.7 0.9 64
2018-09-19 12:00:00 27.4 2 Sudoeste 11 Sudeste 0 1018.9 1.5 65
2018-09-19 11:00:00 25.4 10 Sudeste 15 Sur 0 1018.6 1.6 72
2018-09-19 10:00:00 23.9 10 Sudeste 15 Sudeste 0 1017.8 1 78
2018-09-19 09:00:00 22.9 10 Sudeste 14 Sudeste 0 1017.4 0.9 84
2018-09-19 08:00:00 22.9 8 Sudeste 12 Sur 0 1017 0.3 89
2018-09-19 07:00:00 23.1 3 Nordeste 8 Sudeste 0 1016.8 0.2 90
2018-09-19 06:00:00 23.3 8 Sudeste 12 Sudeste 0 1016.5 -0.3 90
2018-09-19 05:00:00 23.5 8 Sudeste 13 Sudeste 0 1016.7 -0.2 90
2018-09-19 04:00:00 23.7 3 Sudeste 8 Sudeste 0 1016.6 -0.3 90
2018-09-19 03:00:00 24 5 Sur 10 Sudeste 0 1016.8 -0.3 90
2018-09-19 02:00:00 24 6 Sudeste 7 Sudeste 0 1016.9 -0.3 89
2018-09-19 01:00:00 24 0 Calma 5 Oeste 0 1016.9 0.1 89
2018-09-19 00:00:00 24.1 3 Oeste 6 Oeste 0 1017.1 1.2 89
2018-09-18 23:00:00 24.2 3 Oeste 13 Oeste 0 1017.2 1.9 89
2018-09-18 22:00:00 24.3 8 Oeste 12 Oeste 0 1016.8 1.8 88
2018-09-18 21:00:00 24.4 7 Sudoeste 14 Oeste 0 1015.9 1.1 86
2018-09-18 20:00:00 25.5 8 Oeste 15 Oeste 0 1015.3 0 79
2018-09-18 19:00:00 26.5 8 Oeste 19 Oeste 0 1015 -0.6 75
2018-09-18 18:00:00 26.3 12 Oeste 20 Oeste 0 1014.8 -1.1 76
2018-09-18 17:00:00 27 12 Sudoeste 22 Oeste 0 1015.3 -0.7 71
2018-09-18 16:00:00 26.5 13 Sudoeste 22 Oeste 0 1015.6 -0.6 71
2018-09-18 15:00:00 26.8 14 Sudoeste 23 Oeste 0 1015.9 -0.4 71
2018-09-18 14:00:00 26.8 13 Sudoeste 19 Sudoeste 0 1016 -0.2 71
2018-09-18 13:00:00 27 7 Sudoeste 15 Sur 0 1016.2 0.7 69
2018-09-18 12:00:00 26.5 7 Sur 12 Sur 0 1016.3 1.3 72
2018-09-18 11:00:00 26.5 3 Sudeste 7 Este 0 1016.2 1.6 72
2018-09-18 10:00:00 25.3 3 Este 8 Sudeste 0 1015.5 1.2 79
2018-09-18 09:00:00 24.1 8 Sudeste 12 Sudeste 0 1015 0.8 84
2018-09-18 08:00:00 24 6 Sudeste 9 Este 0 1014.6 0.7 86
2018-09-18 07:00:00 24.1 4 Este 6 Este 0 1014.3 0.2 86
2018-09-18 06:00:00 24 2 Este 10 Sudeste 0 1014.2 0.1 84
2018-09-18 05:00:00 24.2 8 Sudeste 12 Sudeste 0 1013.9 -0.1 81
2018-09-18 04:00:00 24.5 4 Nordeste 8 Nordeste 0 1014.1 0 80
2018-09-18 03:00:00 24.5 6 Nordeste 8 Nordeste 0 1014.1 -0.4 81
2018-09-18 02:00:00 24.8 5 Nordeste 10 Nordeste 0 1014 0.1 79
2018-09-18 01:00:00 25 5 Nordeste 17 Nordeste 0 1014.1 0.2 78
2018-09-18 00:00:00 25.2 5 Este 19 Este 0 1014.5 1.5 78
2018-09-17 23:00:00 25.2 17 Sudeste 21 Sudeste 0 1013.9 1.5 78
2018-09-17 22:00:00 25.7 10 Sudeste 27 Sudeste 0 1013.9 1.7 75
2018-09-17 21:00:00 26.2 14 Sudeste 22 Sudeste 0 1013 0.4 74
2018-09-17 20:00:00 26 8 Norte 14 Norte 0 1012.4 -0.4 80
2018-09-17 19:00:00 26.3 10 Norte 16 Norte 0 1012.2 -1.3 79
2018-09-17 18:00:00 28.1 9 Noroeste 23 Oeste 0 1012.6 -1.3 67
2018-09-17 17:00:00 27.8 15 Oeste 21 Oeste 0 1012.8 -1.6 66
2018-09-17 16:00:00 29.1 13 Oeste 22 Este 0 1013.5 -1.7 63
2018-09-17 15:00:00 30.3 18 Este 28 Este 0 1013.9 -1.6 56
2018-09-17 14:00:00 29.4 20 Sudeste 32 Este 0 1014.4 -1.2 59
2018-09-17 13:00:00 28.2 24 Sudeste 32 Sudeste 0 1015.2 -0.4 63
2018-09-17 12:00:00 27.5 26 Sudeste 34 Sudeste 0 1015.5 -0.1 66
2018-09-17 11:00:00 26.7 19 Este 33 Este 0 1015.6 0.7 71
2018-09-17 10:00:00 25.6 11 Nordeste 19 Nordeste 0 1015.6 1.3 69
2018-09-17 09:00:00 23.5 13 Nordeste 22 Nordeste 0 1015.6 1.6 78
2018-09-17 08:00:00 23 9 Nordeste 17 Norte 0 1014.9 -0.3 78
2018-09-17 07:00:00 23.7 7 Nordeste 18 Este 0 1014.3 -1.3 81
2018-09-17 06:00:00 24.3 10 Este 23 Nordeste 0 1014 -2.1 80
2018-09-17 05:00:00 24.3 10 Este 29 Este 0 1015.2 -0.7 81
2018-09-17 04:00:00 24.5 11 Este 35 Este 0 1015.6 -0.6 81
2018-09-17 03:00:00 24.6 14 Este 27 Este 0 1016.1 -0.2 80
2018-09-17 02:00:00 24.6 13 Este 24 Este 0 1015.9 -0.6 78
2018-09-17 01:00:00 24.5 17 Este 32 Este 0 1016.2 -0.3 78
2018-09-17 00:00:00 24.6 26 Este 40 Este 0 1016.3 0.3 78
2018-09-16 23:00:00 25 30 Este 42 Este 0 1016.5 0.6 75
2018-09-16 22:00:00 25.2 28 Este 39 Este 0 1016.5 0.7 71
2018-09-16 21:00:00 26.1 24 Este 34 Este 0 1016 0.3 65
2018-09-16 20:00:00 27.5 24 Este 33 Este 0 1015.9 0 59
2018-09-16 19:00:00 28.9 4 Oeste 16 Oeste 0 1015.8 -0.5 59
2018-09-16 18:00:00 28.3 14 Oeste 24 Oeste 0 1015.7 -1 59
2018-09-16 17:00:00 28.6 16 Oeste 23 Oeste 0 1015.9 -1.6 61
2018-09-16 16:00:00 27.5 13 Sudoeste 25 Sudoeste 0 1016.3 -1.8 62
2018-09-16 15:00:00 30.1 4 Este 22 Este 0 1016.7 -2.2 51
2018-09-16 14:00:00 29.3 14 Este 23 Este 0 1017.5 -1.1 56
2018-09-16 13:00:00 27.8 17 Este 27 Este 0 1018.1 -0.4 62
2018-09-16 12:00:00 26.3 8 Nordeste 17 Nordeste 0 1018.9 0.8 63
2018-09-16 11:00:00 24.5 9 Nordeste 20 Nordeste 0 1018.6 0.7 71
2018-09-16 10:00:00 23.2 10 Norte 17 Norte 0 1018.5 1.1 82
2018-09-16 09:00:00 22.3 11 Nordeste 16 Este 0 1018.1 1.1 84
2018-09-16 08:00:00 21.6 9 Nordeste 17 Nordeste 0 1017.9 0.6 84
2018-09-16 07:00:00 21.6 11 Nordeste 18 Nordeste 0 1017.4 -0.6 84
2018-09-16 06:00:00 22 9 Nordeste 18 Nordeste 0 1017 -1.8 81
2018-09-16 05:00:00 22.4 12 Nordeste 18 Nordeste 0 1017.3 -1.5 81
2018-09-16 04:00:00 23.1 8 Nordeste 24 Este 0 1018 -0.9 81
2018-09-16 03:00:00 23.5 17 Este 28 Este 0 1018.8 0.3 81
2018-09-16 02:00:00 23.7 18 Este 26 Este 0 1018.8 0.2 80
2018-09-16 01:00:00 23.7 8 Este 17 Sudeste 0 1018.9 0.6 78
2018-09-16 00:00:00 23.9 12 Sudeste 18 Sudeste 0 1018.5 1.2 75
2018-09-15 23:00:00 24.4 16 Sudeste 22 Sudeste 0 1018.6 1.9 72
2018-09-15 22:00:00 24.4 2 Nordeste 6 Sur 0 1018.3 1.7 77
2018-09-15 21:00:00 24.7 4 Sur 8 Sur 0 1017.3 0.8 72
2018-09-15 20:00:00 25.8 4 Sur 10 Sur 0 1016.7 0.3 66
2018-09-15 19:00:00 26.6 5 Oeste 10 Sudeste 0 1016.6 -0.1 60
2018-09-15 18:00:00 25.8 7 Oeste 20 Oeste 0 1016.5 -0.2 65
2018-09-15 17:00:00 24.9 14 Oeste 23 Noroeste 0 1016.4 -0.8 69
2018-09-15 16:00:00 25.4 14 Oeste 24 Oeste 0 1016.7 -1 69
2018-09-15 15:00:00 27.1 11 Oeste 18 Oeste 0 1016.7 -1.2 62
2018-09-15 14:00:00 27.2 4 Sur 7 Sur 0 1017.2 -0.5 62
2018-09-15 13:00:00 25.1 3 Norte 5 Norte 0 1017.7 0.4 74
2018-09-15 12:00:00 23.6 0 Calma 8 Nordeste 0 1017.9 0.9 80
2018-09-15 11:00:00 22.3 8 Norte 19 Norte 0 1017.7 1.3 83
2018-09-15 10:00:00 21.8 7 Nordeste 13 Norte 0 1017.3 1.1 84
2018-09-15 09:00:00 21.2 8 Nordeste 14 Norte 0 1017 1.3 87
2018-09-15 08:00:00 21.4 10 Norte 17 Norte 0 1016.4 1 85
2018-09-15 07:00:00 21.6 12 Norte 17 Norte 0 1016.2 0.9 83
2018-09-15 06:00:00 21.4 13 Norte 18 Noroeste 0 1015.7 -0.1 84
2018-09-15 05:00:00 21.4 12 Norte 18 Norte 0 1015.4 -1.9 84
2018-09-15 04:00:00 21.1 6 Nordeste 21 Este 0 1015.3 -2.9 85
2018-09-15 03:00:00 20.9 8 Este 17 Este 0 1015.8 -2.6 86
2018-09-15 02:00:00 20.6 5 Nordeste 8 Nordeste 0 1017.3 -1 85
2018-09-15 01:00:00 21.1 7 Nordeste 23 Norte 0 1018.2 -0.3 83
2018-09-15 00:00:00 21.9 15 Norte 22 Noroeste 0.6 1018.4 1.7 80
2018-09-14 23:00:00 21.1 12 Noroeste 28 Nordeste 3.2 1018.3 2.2 83
2018-09-14 22:00:00 23.1 10 Nordeste 27 Este 0.4 1018.5 2.6 74
2018-09-14 21:00:00 23.2 8 Este 17 Este 0 1016.7 0.9 79
2018-09-14 20:00:00 23.9 0 Calma 6 Sudeste 0.1 1016.1 0 84
2018-09-14 19:00:00 23.9 2 Este 19 Oeste 0 1015.9 -0.9 84
2018-09-14 18:00:00 23.9 6 Norte 17 Oeste 0 1015.8 -1.5 83
2018-09-14 17:00:00 23.6 14 Oeste 22 Oeste 0.1 1016.1 -1.4 82
2018-09-14 16:00:00 23.5 13 Oeste 21 Oeste 0 1016.8 -1.3 82
2018-09-14 15:00:00 23.8 8 Oeste 19 Sudoeste 0.7 1017.3 -0.7 86
2018-09-14 14:00:00 23.8 10 Sudoeste 18 Sudoeste 0 1017.5 0.3 80
2018-09-14 13:00:00 25.5 6 Sudoeste 10 Sudoeste 0 1018.1 1.3 73
2018-09-14 12:00:00 25.1 6 Sudeste 9 Sur 0 1018 1.4 75
2018-09-14 11:00:00 24 4 Sudoeste 8 Sudoeste 0 1017.2 1 79
2018-09-14 10:00:00 23.3 5 Sur 10 Sudeste 0 1016.8 0.6 84
2018-09-14 09:00:00 22.6 8 Sudeste 12 Sudeste 0 1016.6 0.4 87
2018-09-14 08:00:00 22.7 8 Sudeste 11 Sudeste 0 1016.2 -0.5 85
2018-09-14 07:00:00 22.6 6 Sur 9 Sudeste 0 1016.2 -0.9 84
2018-09-14 06:00:00 22.6 4 Sur 8 Sur 0 1016.2 -1.3 84
2018-09-14 05:00:00 22.5 5 Sudoeste 7 Sudoeste 0 1016.7 -1.2 83
2018-09-14 04:00:00 22.7 3 Oeste 10 Sudoeste 0 1017.1 -0.8 83
2018-09-14 03:00:00 22.8 6 Oeste 9 Sudoeste 0 1017.5 -0.8 82
2018-09-14 02:00:00 22.8 6 Sudoeste 11 Oeste 0 1017.9 -0.4 81
2018-09-14 01:00:00 23 8 Oeste 15 Sudoeste 0 1017.9 0 81
2018-09-14 00:00:00 23.1 8 Sudoeste 14 Sudoeste 0 1018.3 0.8 81
2018-09-13 23:00:00 23.2 7 Sudoeste 14 Sudoeste 0 1018.3 0.7 81
2018-09-13 22:00:00 23.1 8 Oeste 16 Sudoeste 0 1017.9 0.2 80
2018-09-13 21:00:00 23.4 9 Sudoeste 16 Oeste 0 1017.5 -0.3 77
2018-09-13 20:00:00 23.9 11 Oeste 18 Oeste 0 1017.6 -0.3 74
2018-09-13 19:00:00 24.9 8 Sudoeste 19 Oeste 0 1017.7 -0.9 70
2018-09-13 18:00:00 26.4 12 Sudoeste 20 Sudoeste 0 1017.8 -1.5 64
2018-09-13 17:00:00 25.8 11 Sudoeste 21 Sudoeste 0 1017.9 -1.9 64
2018-09-13 16:00:00 26.2 12 Sudoeste 21 Sudoeste 0 1018.6 -1.6 63
2018-09-13 15:00:00 26 12 Oeste 24 Oeste 0 1019.3 -0.9 64
2018-09-13 14:00:00 25.7 10 Oeste 17 Oeste 0 1019.8 0.1 66
2018-09-13 13:00:00 24.7 6 Sudoeste 13 Oeste 0 1020.2 1.2 68
2018-09-13 12:00:00 23.9 7 Sudoeste 15 Oeste 0 1020.2 1.4 72
2018-09-13 11:00:00 23.6 7 Oeste 14 Oeste 0 1019.7 1.2 77
2018-09-13 10:00:00 23.3 9 Oeste 13 Oeste 0 1019 0.9 83
2018-09-13 09:00:00 23 0 Calma 6 Oeste 0 1018.8 0.5 87
2018-09-13 08:00:00 22.6 3 Sudoeste 10 Sudoeste 0 1018.5 -0.2 87
2018-09-13 07:00:00 22.7 3 Sudoeste 10 Sudoeste 0 1018.1 -0.6 87
2018-09-13 06:00:00 23.3 4 Sudoeste 7 Oeste 0 1018.3 -0.9 87
2018-09-13 05:00:00 23 0 Calma 7 Oeste 0 1018.7 -0.9 87
2018-09-13 04:00:00 22.9 6 Noroeste 12 Noroeste 0 1018.7 -1.2 90
2018-09-13 03:00:00 23.2 6 Noroeste 13 Oeste 0 1019.2 -1.3 90
2018-09-13 02:00:00 23.5 6 Oeste 11 Sudeste 0 1019.6 -0.6 90
2018-09-13 01:00:00 23.9 6 Sur 9 Sur 0 1019.9 0.1 90
2018-09-13 00:00:00 24 6 Sudoeste 13 Sur 0 1020.5 1.2 89
2018-09-12 23:00:00 23.9 8 Sudoeste 23 Sur 0 1020.2 1.1 88
2018-09-12 22:00:00 24 14 Sur 27 Sur 0 1019.8 0.5 90
2018-09-12 21:00:00 24.4 10 Sur 21 Sur 0 1019.3 0 86
2018-09-12 20:00:00 25.5 9 Sur 21 Sur 0 1019.1 -0.1 80
2018-09-12 19:00:00 25.7 15 Sur 27 Sur 0 1019.3 -0.2 79
2018-09-12 18:00:00 26 13 Sur 29 Sur 0 1019.3 -0.4 77
2018-09-12 17:00:00 26.7 15 Sur 32 Sur 0 1019.2 -1.1 76
2018-09-12 16:00:00 26.1 15 Sur 34 Sur 0 1019.5 -1.2 77
2018-09-12 15:00:00 26.7 21 Sur 37 Sur 0 1019.7 -0.8 72
2018-09-12 14:00:00 27 18 Sur 31 Sur 0 1020.3 -0.1 73
2018-09-12 13:00:00 27.5 12 Sur 23 Sudoeste 0 1020.7 1 70
2018-09-12 12:00:00 28.8 11 Sudeste 19 Sudeste 0 1020.5 1.2 67
2018-09-12 11:00:00 27.4 14 Este 22 Este 0 1020.4 1.8 71
2018-09-12 10:00:00 26.4 6 Nordeste 13 Sudeste 0 1019.7 1.6 72
2018-09-12 09:00:00 24.7 8 Nordeste 15 Nordeste 0 1019.3 1.3 77
2018-09-12 08:00:00 24.4 9 Nordeste 20 Este 0 1018.6 0.5 80
2018-09-12 07:00:00 24.9 10 Nordeste 28 Este 0 1018.1 0 81
2018-09-12 06:00:00 25.1 15 Este 31 Este 0 1018 0.4 79
2018-09-12 05:00:00 25.1 14 Nordeste 23 Este 0 1018.1 0.3 78
2018-09-12 04:00:00 25 10 Nordeste 34 Este 0 1018.1 0.4 80
2018-09-12 03:00:00 25.1 27 Este 48 Sudeste 0 1017.6 0 81
2018-09-12 02:00:00 25.2 33 Este 47 Este 0 1017.8 0.4 80
2018-09-12 01:00:00 25.2 33 Este 42 Este 0 1017.7 1.1 80
2018-09-12 00:00:00 25.2 30 Sudeste 46 Este 0 1017.6 1.4 80
2018-09-11 23:00:00 25.3 37 Este 49 Sudeste 0 1017.4 1.7 78
2018-09-11 22:00:00 25.6 36 Sudeste 49 Este 0 1016.6 0.8 75
2018-09-11 21:00:00 26.2 32 Sudeste 55 Este 0 1016.2 0.2 71
2018-09-11 20:00:00 27.1 37 Este 60 Este 0 1015.7 -0.8 65
2018-09-11 19:00:00 28 38 Este 53 Sudeste 0 1015.8 -1 60
2018-09-11 18:00:00 28.5 36 Sudeste 46 Sudeste 0 1016 -1.2 58
2018-09-11 17:00:00 29.9 33 Este 43 Este 0 1016.5 -1.3 53
2018-09-11 16:00:00 29.4 29 Este 41 Este 0 1016.8 -1.8 54
2018-09-11 15:00:00 29.9 31 Este 45 Este 0 1017.2 -1.7 53
2018-09-11 14:00:00 29 35 Este 45 Este 0 1017.8 -0.7 56
2018-09-11 13:00:00 28.2 33 Este 44 Este 0 1018.6 0.7 59
2018-09-11 12:00:00 28.3 26 Este 42 Este 0 1018.9 1.2 59
2018-09-11 11:00:00 27.6 16 Este 39 Este 0 1018.5 1.1 60
2018-09-11 10:00:00 26.2 9 Este 22 Este 0 1017.9 0.6 65
2018-09-11 09:00:00 25.1 9 Este 22 Nordeste 0 1017.7 0.4 73
2018-09-11 08:00:00 23.9 8 Nordeste 15 Este 0 1017.4 0.1 75
2018-09-11 07:00:00 24.5 9 Nordeste 20 Este 0 1017.3 -0.1 73
2018-09-11 06:00:00 24.9 11 Nordeste 24 Este 0 1017.3 -0.1 72
2018-09-11 05:00:00 24.7 12 Este 32 Este 0 1017.3 -0.4 75
2018-09-11 04:00:00 24.7 24 Este 44 Sudeste 0 1017.4 -0.6 75
2018-09-11 03:00:00 24.7 35 Este 46 Este 0 1017.4 -0.7 75
2018-09-11 02:00:00 24.8 32 Este 42 Sudeste 0 1017.7 0 72
2018-09-11 01:00:00 25 27 Este 44 Este 0 1018 0.9 73
2018-09-11 00:00:00 25.2 35 Este 50 Este 0 1018.1 1.7 74
2018-09-10 23:00:00 25.2 35 Sudeste 51 Este 0 1017.7 1.4 72
2018-09-10 22:00:00 25.5 37 Sudeste 55 Este 0 1017.1 1.1 66
2018-09-10 21:00:00 26.3 33 Sudeste 44 Sudeste 0 1016.4 0.3 60
2018-09-10 20:00:00 28.1 32 Sudeste 42 Este 0 1016.3 -0.1 50
2018-09-10 19:00:00 29.4 30 Este 38 Este 0 1016 -0.9 47
2018-09-10 18:00:00 30.8 5 Sudoeste 14 Sur 0 1016.1 -1.2 48
2018-09-10 17:00:00 28.7 8 Sudoeste 22 Sudoeste 0 1016.4 -1.4 55
2018-09-10 16:00:00 26.5 14 Sur 26 Sudoeste 0 1016.9 -1.4 65
2018-09-10 15:00:00 28.7 0 Calma 32 Nordeste 0 1017.3 -1.3 48
2018-09-10 14:00:00 29.6 14 Norte 26 Norte 0 1017.8 -0.8 42
2018-09-10 13:00:00 27.5 9 Norte 16 Norte 0 1018.3 0 57
2018-09-10 12:00:00 25.4 11 Norte 16 Norte 0 1018.6 0.5 63
2018-09-10 11:00:00 24 11 Nordeste 18 Nordeste 0 1018.6 0.5 67
2018-09-10 10:00:00 23.2 7 Nordeste 15 Nordeste 0 1018.3 0.4 72
2018-09-10 09:00:00 21.6 9 Norte 17 Norte 0 1018.1 0.1 80
2018-09-10 08:00:00 21.2 12 Norte 22 Norte 0 1018.1 0.2 81
2018-09-10 07:00:00 21.4 14 Norte 21 Nordeste 0 1017.9 -0.1 83
2018-09-10 06:00:00 21.7 15 Nordeste 22 Nordeste 0 1018 -0.4 83
2018-09-10 05:00:00 21.5 12 Nordeste 15 Nordeste 0 1017.9 -0.6 84
2018-09-10 04:00:00 21.7 8 Norte 11 Nordeste 0 1018 -1 81
2018-09-10 03:00:00 21.9 9 Nordeste 13 Nordeste 0 1018.4 -0.6 79
2018-09-10 02:00:00 22.6 6 Nordeste 12 Nordeste 0 1018.5 -0.4 76
2018-09-10 01:00:00 22.7 6 Nordeste 10 Nordeste 0 1019 0.8 75
2018-09-10 00:00:00 23.1 7 Norte 12 Noroeste 0 1019 1.6 75
2018-09-09 23:00:00 22.9 6 Noroeste 17 Oeste 0 1018.9 1.8 73
2018-09-09 22:00:00 23.1 12 Noroeste 17 Noroeste 0 1018.2 1.4 72
2018-09-09 21:00:00 23.1 9 Sudoeste 17 Oeste 0 1017.4 0.8 70
2018-09-09 20:00:00 24.4 9 Oeste 19 Noroeste 0 1017.1 0.8 67
2018-09-09 19:00:00 24.6 13 Oeste 26 Oeste 0 1016.8 0 66
2018-09-09 18:00:00 25.4 15 Oeste 23 Oeste 0 1016.6 -0.7 63
2018-09-09 17:00:00 25.8 14 Sudoeste 22 Sudoeste 0 1016.3 -1.4 59
2018-09-09 16:00:00 26 13 Oeste 22 Oeste 0 1016.8 -1 60
2018-09-09 15:00:00 25.4 14 Oeste 22 Oeste 0 1017.3 -0.7 62
2018-09-09 14:00:00 24 13 Oeste 22 Noroeste 0 1017.7 -0.2 64
2018-09-09 13:00:00 24.2 10 Oeste 17 Oeste 0 1017.8 0.2 59
2018-09-09 12:00:00 23.6 9 Oeste 16 Oeste 0 1018 0.7 65
2018-09-09 11:00:00 22.9 4 Norte 7 Noroeste 0 1017.9 1 69
2018-09-09 10:00:00 22.1 3 Norte 8 Norte 0 1017.6 0.9 74
2018-09-09 09:00:00 21 6 Nordeste 11 Nordeste 0 1017.3 0.5 78
2018-09-09 08:00:00 21.1 9 Norte 12 Norte 0 1016.9 -0.2 76
2018-09-09 07:00:00 20.7 4 Nordeste 12 Nordeste 0 1016.7 -0.5 85
2018-09-09 06:00:00 21 9 Norte 17 Norte 0 1016.8 -0.7 86
2018-09-09 05:00:00 21.2 14 Norte 19 Norte 0.2 1017.1 -0.5 87
2018-09-09 04:00:00 20.8 12 Nordeste 18 Nordeste 0 1017.2 -0.4 85
2018-09-09 03:00:00 22 13 Nordeste 20 Nordeste 0 1017.5 0 72
2018-09-09 02:00:00 23 13 Noroeste 19 Noroeste 0 1017.6 0.3 69
2018-09-09 01:00:00 23.1 14 Noroeste 19 Noroeste 0 1017.6 0.8 69
2018-09-09 00:00:00 23 12 Noroeste 19 Noroeste 0 1017.5 1.5 66
2018-09-08 23:00:00 23.1 13 Noroeste 21 Noroeste 0 1017.3 1.5 65
2018-09-08 22:00:00 22.8 12 Noroeste 19 Oeste 0 1016.8 1.2 65
2018-09-08 21:00:00 22.7 13 Noroeste 22 Noroeste 0 1016 0.3 66
2018-09-08 20:00:00 23.2 14 Noroeste 21 Oeste 0 1015.8 0.1 63
2018-09-08 19:00:00 24 15 Oeste 24 Oeste 0 1015.6 -0.5 61
2018-09-08 18:00:00 24.2 14 Oeste 23 Oeste 0 1015.7 -0.5 57
2018-09-08 17:00:00 24.4 15 Oeste 23 Oeste 0 1015.7 -0.4 57
2018-09-08 16:00:00 24 13 Oeste 21 Oeste 0 1016.1 -0.3 59
2018-09-08 15:00:00 24.2 8 Oeste 19 Oeste 0 1016.2 -0.2 58
2018-09-08 14:00:00 23.6 8 Oeste 15 Oeste 0 1016.1 0 55
2018-09-08 13:00:00 23.3 9 Noroeste 16 Oeste 0 1016.4 1.2 65
2018-09-08 12:00:00 23.1 6 Oeste 13 Noroeste 0 1016.4 1.6 67
2018-09-08 11:00:00 22.7 4 Oeste 10 Noroeste 0 1016.1 1.9 68
2018-09-08 10:00:00 22.5 0 Calma 5 Este 0 1015.2 1.4 71
2018-09-08 09:00:00 21.6 5 Este 14 Norte 0 1014.8 1 75
2018-09-08 08:00:00 21.2 13 Norte 19 Noroeste 0 1014.2 0 77
2018-09-08 07:00:00 21.8 10 Noroeste 14 Noroeste 0 1013.8 -0.4 75
2018-09-08 06:00:00 22 6 Oeste 12 Oeste 0 1013.8 -0.5 72
2018-09-08 05:00:00 21.9 6 Oeste 12 Sudoeste 0 1014.2 -0.3 72
2018-09-08 04:00:00 21.8 8 Oeste 12 Oeste 0 1014.2 -0.2 72
2018-09-08 03:00:00 22 6 Oeste 12 Oeste 0 1014.3 -0.1 71
2018-09-08 02:00:00 22.1 8 Oeste 17 Oeste 0 1014.5 0.2 72
2018-09-08 01:00:00 21.9 10 Oeste 14 Noroeste 0 1014.4 0.9 72
2018-09-08 00:00:00 22 7 Oeste 15 Noroeste 0 1014.4 1.7 70
2018-09-07 23:00:00 21.9 8 Oeste 17 Noroeste 0 1014.3 2 70
2018-09-07 22:00:00 22.1 11 Noroeste 18 Noroeste 0 1013.5 1.3 69
2018-09-07 21:00:00 22.1 12 Noroeste 21 Oeste 0 1012.7 0.7 69
2018-09-07 20:00:00 22.6 14 Oeste 22 Noroeste 0 1012.3 0.3 68
2018-09-07 19:00:00 23.2 14 Oeste 25 Noroeste 0 1012.2 -0.2 66
2018-09-07 18:00:00 23.8 15 Oeste 24 Oeste 0 1012 -1.1 64
2018-09-07 17:00:00 23.5 18 Oeste 27 Oeste 0 1012 -1.5 64
2018-09-07 16:00:00 24.4 13 Oeste 23 Oeste 0 1012.4 -1.3 59
2018-09-07 15:00:00 24.3 8 Oeste 19 Sudoeste 0 1013.1 -0.8 59
2018-09-07 14:00:00 24 10 Sudoeste 21 Oeste 0 1013.5 -0.2 60
2018-09-07 13:00:00 24.6 8 Sudoeste 18 Oeste 0 1013.7 0.7 58
2018-09-07 12:00:00 23.9 6 Sur 17 Sudoeste 0 1013.9 0.8 58
2018-09-07 11:00:00 23.4 7 Sudoeste 14 Sudoeste 0 1013.7 0.9 61
2018-09-07 10:00:00 22.5 8 Sur 16 Sudoeste 0 1013 0.3 66
2018-09-07 09:00:00 22.1 7 Sudoeste 12 Sur 0 1013.1 0.3 68
2018-09-07 08:00:00 21.4 8 Sur 15 Sur 0 1012.8 -0.3 68
2018-09-07 07:00:00 21.2 0 Calma 13 Sudoeste 0 1012.7 -0.6 67
2018-09-07 06:00:00 21.5 7 Sudoeste 13 Oeste 0 1012.8 -0.9 68
2018-09-07 05:00:00 21.8 6 Sudoeste 14 Sur 0 1013.1 -1.1 68
2018-09-07 04:00:00 21.5 9 Sudoeste 18 Sudoeste 0 1013.3 -1 68
2018-09-07 03:00:00 21.2 5 Sudoeste 17 Sudoeste 0 1013.7 -0.5 72
2018-09-07 02:00:00 21.4 7 Sudoeste 18 Sudoeste 0 1014.2 -0.6 73
2018-09-07 01:00:00 21.4 10 Sudoeste 19 Sudoeste 0 1014.3 -0.2 75
2018-09-07 00:00:00 21.5 11 Sudoeste 19 Sur 0 1014.2 0.2 74
2018-09-06 23:00:00 21.8 10 Sur 17 Sudoeste 0 1014.8 0.9 74
2018-09-06 22:00:00 22.2 8 Sur 17 Sudoeste 0 1014.5 0.8 73
2018-09-06 21:00:00 22.4 8 Sudoeste 15 Sudoeste 0 1014 0 72
2018-09-06 20:00:00 23.1 9 Sudoeste 17 Sudoeste 0 1013.9 -0.2 69
2018-09-06 19:00:00 24.3 9 Sudoeste 18 Sudoeste 0 1013.7 -1 65
2018-09-06 18:00:00 24.2 14 Sudoeste 23 Oeste 0 1014 -1.1 65
2018-09-06 17:00:00 23.9 13 Oeste 23 Oeste 0 1014.1 -1.5 65
2018-09-06 16:00:00 24.9 13 Oeste 22 Oeste 0 1014.7 -0.9 65
2018-09-06 15:00:00 23.3 12 Oeste 23 Sudoeste 0 1015.1 -0.5 69
2018-09-06 14:00:00 24.2 11 Sudoeste 20 Oeste 0 1015.6 0.2 67
2018-09-06 13:00:00 23.9 10 Oeste 19 Oeste 0 1015.6 0.6 69
2018-09-06 12:00:00 23 10 Oeste 19 Noroeste 0 1015.6 1.1 71
2018-09-06 11:00:00 23.2 8 Oeste 17 Oeste 0 1015.4 1.4 73
2018-09-06 10:00:00 23 2 Este 9 Norte 0 1015 1.1 69
2018-09-06 09:00:00 21.6 6 Norte 10 Noroeste 0 1014.5 0.6 75
2018-09-06 08:00:00 21.7 9 Noroeste 13 Noroeste 0 1014 0 76
2018-09-06 07:00:00 22.2 6 Noroeste 10 Noroeste 0 1013.9 -0.3 74
2018-09-06 06:00:00 22.2 5 Noroeste 15 Noroeste 0 1013.9 -0.6 72
2018-09-06 05:00:00 22.6 8 Noroeste 14 Noroeste 0 1014 -1.2 72
2018-09-06 04:00:00 23 7 Noroeste 17 Noroeste 0 1014.2 -1.3 73
2018-09-06 03:00:00 22.8 13 Noroeste 22 Oeste 0 1014.5 -1 79
2018-09-06 02:00:00 22.6 12 Oeste 21 Oeste 0 1015.2 -0.5 76
2018-09-06 01:00:00 22.4 11 Oeste 19 Oeste 0 1015.5 0.3 77
2018-09-06 00:00:00 22.6 12 Oeste 20 Oeste 0 1015.5 1 73
2018-09-05 23:00:00 22.5 12 Oeste 22 Oeste 0 1015.7 1.1 76
2018-09-05 22:00:00 23 14 Oeste 23 Oeste 0 1015.2 0.3 72
2018-09-05 21:00:00 23.5 12 Oeste 22 Oeste 0 1014.5 -0.5 69
2018-09-05 20:00:00 24.6 13 Oeste 22 Oeste 0 1014.6 -1 60
2018-09-05 19:00:00 25.6 10 Oeste 19 Oeste 0 1014.9 -0.8 58
2018-09-05 18:00:00 25.2 11 Oeste 21 Sudoeste 0 1015 -1 59
2018-09-05 17:00:00 26.2 12 Sudoeste 21 Oeste 0 1015.6 -0.8 56
2018-09-05 16:00:00 25.5 8 Sudoeste 18 Sudoeste 0 1015.7 -0.9 59
2018-09-05 15:00:00 25 10 Oeste 20 Oeste 0 1016 -0.7 61
2018-09-05 14:00:00 25.3 10 Oeste 20 Sudoeste 0 1016.4 0 62
2018-09-05 13:00:00 24.2 12 Oeste 19 Oeste 0 1016.6 0.6 64
2018-09-05 12:00:00 24.3 9 Oeste 19 Oeste 0 1016.7 1.2 65
2018-09-05 11:00:00 23.4 9 Sudoeste 15 Sudoeste 0 1016.4 1.2 74
2018-09-05 10:00:00 23.5 7 Sudoeste 12 Sudoeste 0 1016 1.2 75
2018-09-05 09:00:00 22.7 6 Sudoeste 12 Sudoeste 0 1015.5 0.9 77
2018-09-05 08:00:00 22.4 6 Oeste 12 Oeste 0 1015.2 0.7 77
2018-09-05 07:00:00 22.6 6 Oeste 11 Oeste 0 1014.8 0.4 77
2018-09-05 06:00:00 22.4 6 Sudoeste 13 Sudoeste 0 1014.6 0.1 76
2018-09-05 05:00:00 22.3 7 Sudoeste 14 Oeste 0 1014.5 -0.3 75
2018-09-05 04:00:00 22.2 9 Sudoeste 15 Sudoeste 0 1014.4 -0.6 73
2018-09-05 03:00:00 22.3 8 Sudoeste 14 Sudoeste 0 1014.5 -0.2 74
2018-09-05 02:00:00 22.4 8 Sudoeste 16 Oeste 0 1014.8 0.2 72
2018-09-05 01:00:00 22.7 9 Oeste 17 Sudoeste 0 1015 0.9 69
2018-09-05 00:00:00 22.9 8 Oeste 17 Oeste 0 1014.7 1.1 67
2018-09-04 23:00:00 22.9 9 Oeste 22 Oeste 0 1014.6 1.4 66
2018-09-04 22:00:00 23 10 Oeste 20 Sudoeste 0 1014.1 0.9 66
2018-09-04 21:00:00 23.3 10 Oeste 19 Oeste 0 1013.6 0.5 64
2018-09-04 20:00:00 24.5 12 Sudoeste 19 Sudoeste 0 1013.2 -0.1 60
2018-09-04 19:00:00 25.7 10 Sudoeste 24 Oeste 0 1013.2 -0.4 59
2018-09-04 18:00:00 25.2 11 Sudoeste 22 Sudoeste 0 1013.1 -0.7 57
2018-09-04 17:00:00 25.2 9 Sudoeste 21 Sudoeste 0 1013.3 -0.7 54
2018-09-04 16:00:00 25.9 10 Sudoeste 20 Sudoeste 0 1013.6 -0.5 53
2018-09-04 15:00:00 25.8 10 Sudoeste 19 Oeste 0 1013.8 -0.3 53
2018-09-04 14:00:00 25.3 5 Oeste 18 Sudoeste 0 1014 0.3 54
2018-09-04 13:00:00 25.2 9 Sudoeste 18 Sudoeste 0 1014.1 0.7 57
2018-09-04 12:00:00 24.6 8 Sur 14 Sudoeste 0 1014.1 1.1 59
2018-09-04 11:00:00 24 6 Sur 12 Sur 0 1013.7 1 60
2018-09-04 10:00:00 23.6 4 Oeste 10 Sudoeste 0 1013.4 1 63
2018-09-04 09:00:00 22.6 4 Sudoeste 8 Sudoeste 0 1013 0.5 65
2018-09-04 08:00:00 22.2 4 Oeste 8 Oeste 0 1012.7 0.2 68
2018-09-04 07:00:00 22.2 5 Noroeste 9 Oeste 0 1012.4 -0.8 69
2018-09-04 06:00:00 22.2 5 Sudoeste 10 Sudoeste 0 1012.5 -1 68
2018-09-04 05:00:00 22.3 3 Sudoeste 14 Sudoeste 0 1012.5 -1.3 67
2018-09-04 04:00:00 22.1 7 Sudoeste 14 Sudoeste 0 1013.2 -0.6 69
2018-09-04 03:00:00 22.1 8 Sudoeste 15 Sudoeste 0 1013.5 0 69
2018-09-04 02:00:00 22.5 7 Oeste 14 Sudoeste 0 1013.8 0.3 69
2018-09-04 01:00:00 22.5 8 Oeste 18 Oeste 0 1013.8 0.7 70
2018-09-04 00:00:00 22.6 9 Oeste 18 Oeste 0 1013.5 1 72
2018-09-03 23:00:00 22.8 12 Oeste 21 Oeste 0 1013.5 1 72
2018-09-03 22:00:00 22.8 9 Oeste 19 Oeste 0 1013.1 0.4 70
2018-09-03 21:00:00 22.9 9 Oeste 19 Oeste 0 1012.5 -0.4 68
2018-09-03 20:00:00 24.1 10 Oeste 20 Sudoeste 0 1012.5 -0.6 63
2018-09-03 19:00:00 24.5 13 Oeste 23 Oeste 0 1012.7 -0.9 61
2018-09-03 18:00:00 24.9 13 Oeste 22 Oeste 0 1012.9 -0.7 62
2018-09-03 17:00:00 25.6 13 Oeste 24 Oeste 0 1013.1 -0.6 59
2018-09-03 16:00:00 25.4 15 Sudoeste 23 Sudoeste 0 1013.6 -0.3 59
2018-09-03 15:00:00 25.2 14 Sudoeste 23 Sudoeste 0 1013.6 -0.2 59
2018-09-03 14:00:00 25 12 Sudoeste 21 Sur 0 1013.7 0.1 61
2018-09-03 13:00:00 24.7 11 Sudoeste 19 Sudoeste 0 1013.9 0.8 62
2018-09-03 12:00:00 25 10 Sudoeste 18 Sudoeste 0 1013.8 0.9 64
2018-09-03 11:00:00 24 11 Sudoeste 17 Sudoeste 0 1013.6 1.3 68
2018-09-03 10:00:00 23.2 9 Oeste 14 Oeste 0 1013.1 0.8 75
2018-09-03 09:00:00 22.7 2 Sudoeste 7 Oeste 0 1012.9 0.3 80
2018-09-03 08:00:00 22.2 4 Oeste 8 Oeste 0 1012.3 -0.6 83
2018-09-03 07:00:00 22.4 2 Sudoeste 7 Sudoeste 0 1012.3 -1.1 82
2018-09-03 06:00:00 22.7 5 Sudoeste 9 Sudoeste 0 1012.6 -1 81
2018-09-03 05:00:00 23 6 Sudoeste 11 Sudoeste 0 1012.9 -0.9 80
2018-09-03 04:00:00 23.4 6 Sudoeste 13 Sudoeste 0 1013.4 -0.5 80
2018-09-03 03:00:00 23.4 8 Sudoeste 22 Sur 0 1013.6 -0.2 78
2018-09-03 02:00:00 23.4 12 Sudoeste 21 Sudoeste 0 1013.8 0.7 79
2018-09-03 01:00:00 23.3 12 Sudoeste 28 Sudoeste 0 1013.9 2 83
2018-09-03 00:00:00 23.5 15 Sudoeste 32 Sur 0 1013.8 2.9 88
2018-09-02 23:00:00 23.2 26 Sur 45 Sur 0 1013.1 2.4 89
2018-09-02 22:00:00 24.2 26 Sur 45 Sur 0 1011.9 1.2 86
2018-09-02 21:00:00 25.9 13 Sur 25 Sur 0 1010.9 0.2 77
2018-09-02 20:00:00 28.6 15 Sur 26 Sur 0 1010.7 -0.6 63
2018-09-02 19:00:00 29 21 Sur 32 Sur 0 1010.7 -0.7 63
2018-09-02 18:00:00 29.2 22 Sur 32 Sur 0 1010.7 -1.3 61
2018-09-02 17:00:00 28.4 16 Sur 35 Sudeste 0 1011.3 -1.3 62
2018-09-02 16:00:00 32.1 28 Sudeste 40 Sudeste 0 1011.4 -1.4 46
2018-09-02 15:00:00 31.5 26 Sudeste 41 Sudeste 0 1012 -1.3 50
2018-09-02 14:00:00 30.4 33 Sudeste 42 Sudeste 0 1012.6 -0.4 53
2018-09-02 13:00:00 29.8 31 Sudeste 45 Sudeste 0 1012.8 0.4 57
2018-09-02 12:00:00 28.8 27 Sudeste 50 Sudeste 0 1013.3 0.6 62
2018-09-02 11:00:00 27.6 32 Sudeste 53 Este 0 1013 0.9 64
2018-09-02 10:00:00 26.4 32 Este 52 Este 0 1012.4 0.4 71
2018-09-02 09:00:00 25.6 32 Sudeste 46 Este 0 1012.7 0.7 73
2018-09-02 08:00:00 25.2 31 Este 41 Sudeste 0 1012.1 -0.3 74
2018-09-02 07:00:00 25.2 27 Este 42 Sudeste 0 1012 -0.4 74
2018-09-02 06:00:00 25.3 32 Sudeste 49 Sudeste 0 1012 0.3 73
2018-09-02 05:00:00 25.3 37 Sudeste 55 Sudeste 0 1012.4 0.3 73
2018-09-02 04:00:00 25.6 36 Sudeste 48 Sudeste 0 1012.4 0.2 67
2018-09-02 03:00:00 26.2 35 Sudeste 49 Sudeste 0 1011.7 -0.7 62
2018-09-02 02:00:00 26.2 32 Este 53 Este 0 1012.1 -0.3 64
2018-09-02 01:00:00 26.3 37 Sudeste 49 Sudeste 0 1012.2 0.4 65
2018-09-02 00:00:00 26.1 34 Sudeste 44 Este 0 1012.4 0.7 67
2018-09-01 23:00:00 26.5 34 Sudeste 52 Sudeste 0 1012.4 1 64
2018-09-01 22:00:00 26.9 36 Este 52 Este 0 1011.8 0 62
2018-09-01 21:00:00 27.6 31 Este 47 Sudeste 0 1011.7 -0.2 60
2018-09-01 20:00:00 28.5 34 Este 48 Sudeste 0 1011.4 -0.8 55
2018-09-01 19:00:00 29.3 32 Sudeste 45 Sudeste 0 1011.8 -0.8 56
2018-09-01 18:00:00 29.8 29 Sudeste 45 Sudeste 0 1011.9 -1.1 54
2018-09-01 17:00:00 30.2 36 Sudeste 49 Sudeste 0 1012.2 -1 52
2018-09-01 16:00:00 30.2 38 Sudeste 54 Este 0 1012.6 -0.6 52
2018-09-01 15:00:00 29.9 38 Sudeste 49 Sudeste 0 1013 -0.5 53
2018-09-01 14:00:00 29.9 35 Sudeste 59 Sudeste 0 1013.2 -0.4 56
2018-09-01 13:00:00 29.3 42 Sudeste 55 Sudeste 0 1013.2 0.3 56
2018-09-01 12:00:00 28.8 39 Sudeste 53 Sudeste 0 1013.5 0.6 57
2018-09-01 11:00:00 28.1 31 Este 48 Este 0 1013.6 0.5 61
2018-09-01 10:00:00 26.8 36 Este 48 Sudeste 0 1012.9 0.1 66
2018-09-01 09:00:00 25.6 31 Sudeste 42 Sudeste 0 1012.9 0.1 69
2018-09-01 08:00:00 25 26 Este 45 Este 0 1013.1 0.3 73
2018-09-01 07:00:00 25.3 25 Este 35 Este 0 1012.8 -0.3 69
2018-09-01 06:00:00 25.4 24 Este 35 Este 0 1012.8 -0.4 68
2018-09-01 05:00:00 25.9 18 Este 28 Este 0 1012.8 -0.6 60
2018-09-01 04:00:00 26 10 Este 21 Este 0 1013.1 -0.4 56
2018-09-01 03:00:00 25.7 7 Nordeste 18 Nordeste 0 1013.2 -0.1 54
2018-09-01 02:00:00 25.9 7 Nordeste 19 Nordeste 0 1013.4 0.1 51
2018-09-01 01:00:00 26.2 9 Nordeste 24 Este 0 1013.5 1 52
2018-09-01 00:00:00 26.7 13 Este 30 Este 0 1013.3 1.5 54
2018-08-31 23:00:00 26.7 24 Este 51 Este 0 1013.3 1.8 59
2018-08-31 22:00:00 27 37 Este 49 Este 0 1012.5 0.6 60
2018-08-31 21:00:00 27.6 31 Este 46 Sudeste 0 1011.8 -0.2 56
2018-08-31 20:00:00 29.1 32 Sudeste 49 Este 0 1011.5 -0.8 48
2018-08-31 19:00:00 30.1 27 Este 46 Este 0 1011.9 -1 46
2018-08-31 18:00:00 30.9 30 Este 47 Este 0 1012 -1.3 44
2018-08-31 17:00:00 31.1 32 Sudeste 45 Este 0 1012.3 -1.5 44
2018-08-31 16:00:00 31.2 35 Este 44 Sudeste 0 1012.9 -1.5 43
2018-08-31 15:00:00 30.9 34 Este 46 Este 0 1013.3 -1.3 45
2018-08-31 14:00:00 30.4 27 Este 41 Este 0 1013.8 -0.7 49
2018-08-31 13:00:00 29.8 25 Este 41 Este 0 1014.4 -0.2 51
2018-08-31 12:00:00 28.6 28 Este 40 Este 0 1014.6 0.1 55
2018-08-31 11:00:00 27.9 29 Este 40 Este 0 1014.5 0.5 58
2018-08-31 10:00:00 26.8 9 Este 21 Este 0 1014.6 0.9 58
2018-08-31 09:00:00 25.1 4 Nordeste 12 Nordeste 0 1014.5 0.9 64
2018-08-31 08:00:00 24.5 6 Nordeste 32 Este 0 1014 0.3 61
2018-08-31 07:00:00 25.2 6 Este 18 Este 0 1013.7 -0.4 55
2018-08-31 06:00:00 25.4 9 Nordeste 17 Este 0 1013.6 -1.2 53
2018-08-31 05:00:00 25.3 7 Nordeste 17 Este 0 1013.7 -1.4 59
2018-08-31 04:00:00 24.9 7 Nordeste 15 Este 0 1014.1 -0.8 62
2018-08-31 03:00:00 25.2 10 Nordeste 20 Nordeste 0 1014.8 -0.7 64
2018-08-31 02:00:00 25.7 14 Este 34 Este 0 1015.1 -0.4 67
2018-08-31 01:00:00 25.8 27 Este 37 Este 0 1014.9 0.7 69
2018-08-31 00:00:00 26.4 18 Este 27 Este 0 1015.5 1.5 66
2018-08-30 23:00:00 26.6 5 Sur 18 Este 0 1015.5 1.7 66
2018-08-30 22:00:00 25.9 4 Nordeste 10 Norte 0 1014.2 0.1 73
2018-08-30 21:00:00 26.1 10 Noroeste 13 Noroeste 0 1014 -0.5 68
2018-08-30 20:00:00 27.1 8 Noroeste 14 Oeste 0 1013.8 -1.2 64
2018-08-30 19:00:00 26.5 12 Oeste 21 Oeste 0 1014.1 -1.8 65
2018-08-30 18:00:00 25.2 16 Oeste 22 Noroeste 0 1014.5 -1.8 71
2018-08-30 17:00:00 25.4 13 Oeste 20 Oeste 0 1015 -1.4 68
2018-08-30 16:00:00 25.6 12 Oeste 19 Oeste 0 1015.9 -1 66
2018-08-30 15:00:00 25.5 12 Oeste 21 Sudoeste 0 1016.3 -0.9 67
2018-08-30 14:00:00 24.7 15 Oeste 22 Oeste 0 1016.4 -0.6 68
2018-08-30 13:00:00 24.7 11 Sudoeste 19 Sudoeste 0 1016.9 0.2 67
2018-08-30 12:00:00 24 9 Sur 17 Sur 0 1017.2 0.8 70
2018-08-30 11:00:00 23.4 10 Sur 18 Sur 0 1017 1.1 72
2018-08-30 10:00:00 22.5 13 Sur 22 Sur 0 1016.7 1.2 78
2018-08-30 09:00:00 22 13 Sudeste 21 Sur 0 1016.4 0.9 84
2018-08-30 08:00:00 21.9 10 Sur 18 Sur 0 1015.9 0.3 83
2018-08-30 07:00:00 21.8 10 Sur 17 Sur 0 1015.5 -0.5 84
2018-08-30 06:00:00 22 9 Sur 19 Sur 0 1015.5 -1 86
2018-08-30 05:00:00 21.8 12 Sur 19 Sur 0 1015.6 -1 86
2018-08-30 04:00:00 22.2 11 Sudeste 18 Sudeste 0 1016 -0.9 84
2018-08-30 03:00:00 22.3 10 Sur 15 Sur 0 1016.5 -0.3 83
2018-08-30 02:00:00 22.2 5 Sur 10 Sudoeste 0 1016.6 -0.1 82
2018-08-30 01:00:00 22 4 Oeste 11 Oeste 0 1016.9 0.6 82
2018-08-30 00:00:00 22 9 Oeste 28 Oeste 0 1016.8 1 82
2018-08-29 23:00:00 22.1 9 Oeste 28 Oeste 0 1016.7 0.9 82
2018-08-29 22:00:00 22.4 8 Oeste 22 Oeste 0 1016.3 0.4 81
2018-08-29 21:00:00 22.7 14 Oeste 26 Oeste 0 1015.8 -0.3 76
2018-08-29 20:00:00 24.3 15 Oeste 31 Oeste 0 1015.8 -0.6 68
2018-08-29 19:00:00 24.6 17 Oeste 29 Oeste 0 1015.9 -1 63
2018-08-29 18:00:00 25.5 17 Oeste 27 Oeste 0 1016.1 -1.1 59
2018-08-29 17:00:00 25.4 18 Oeste 28 Oeste 0 1016.4 -1.2 59
2018-08-29 16:00:00 25.5 14 Oeste 23 Oeste 0 1016.9 -0.7 59
2018-08-29 15:00:00 25.4 15 Oeste 30 Sudoeste 0 1017.2 -0.5 62
2018-08-29 14:00:00 25.2 10 Oeste 18 Oeste 0 1017.6 0.1 64
2018-08-29 13:00:00 25 9 Oeste 16 Oeste 0 1017.6 0.4 65
2018-08-29 12:00:00 24.7 7 Oeste 14 Oeste 0 1017.7 0.9 64
2018-08-29 11:00:00 24.5 4 Sudoeste 10 Oeste 0 1017.5 0.9 65
2018-08-29 10:00:00 22.8 4 Sudoeste 13 Sur 0 1017.2 1 72
2018-08-29 09:00:00 22.3 3 Sur 12 Sur 0 1016.8 0.7 75
2018-08-29 08:00:00 22 3 Sur 10 Sur 0 1016.6 0.5 78
2018-08-29 07:00:00 21.9 4 Sur 10 Sur 0 1016.2 -0.1 81
2018-08-29 06:00:00 22 6 Sudoeste 13 Sudoeste 0 1016.1 -0.4 82
2018-08-29 05:00:00 22.2 7 Sudoeste 15 Sudoeste 0 1016.1 -0.4 82
2018-08-29 04:00:00 22.4 9 Sudoeste 22 Sur 0 1016.3 -0.2 84
2018-08-29 03:00:00 22.4 10 Sur 25 Sur 0 1016.5 0.1 85
2018-08-29 02:00:00 22.5 17 Sur 23 Sur 0 1016.5 0.3 86
2018-08-29 01:00:00 22.5 10 Sur 16 Sur 0 1016.5 1 86
2018-08-29 00:00:00 22.6 7 Sur 14 Sur 0 1016.4 1.7 84
2018-08-28 23:00:00 22.7 7 Sur 12 Sur 0 1016.2 1.9 84
2018-08-28 22:00:00 22.8 5 Sudoeste 13 Oeste 0 1015.5 1.2 82
2018-08-28 21:00:00 23.2 8 Oeste 15 Sudoeste 0 1014.7 0.2 80
2018-08-28 20:00:00 24.5 9 Oeste 22 Oeste 0 1014.3 -0.4 70
2018-08-28 19:00:00 24.3 13 Oeste 28 Oeste 0 1014.3 -0.9 74
2018-08-28 18:00:00 24.4 18 Oeste 30 Noroeste 0 1014.5 -0.8 75
2018-08-28 17:00:00 23.5 19 Oeste 26 Oeste 0 1014.7 -0.8 79
2018-08-28 16:00:00 24.9 15 Oeste 27 Oeste 0 1015.2 -0.5 76
2018-08-28 15:00:00 23.8 19 Oeste 26 Oeste 0 1015.3 -0.5 79
2018-08-28 14:00:00 24.8 17 Oeste 25 Oeste 0 1015.5 0.2 75
2018-08-28 13:00:00 25.2 15 Oeste 22 Noroeste 0 1015.7 1.1 74
2018-08-28 12:00:00 26 12 Oeste 17 Oeste 0 1015.8 1.6 74
2018-08-28 11:00:00 24.4 10 Noroeste 12 Noroeste 0 1015.3 1.1 82
2018-08-28 10:00:00 23.8 8 Norte 10 Noroeste 0 1014.6 0.6 86
2018-08-28 09:00:00 23.4 6 Norte 8 Norte 0 1014.2 0.5 87
2018-08-28 08:00:00 22.8 3 Noroeste 5 Oeste 0 1014.2 0.3 88
2018-08-28 07:00:00 22.7 3 Oeste 7 Oeste 0 1014 -0.3 88
2018-08-28 06:00:00 22.9 5 Sudoeste 11 Sudoeste 0 1013.7 -0.6 88
2018-08-28 05:00:00 23 6 Sudoeste 14 Sur 0 1013.9 -1 87
2018-08-28 04:00:00 23.4 11 Sur 24 Sur 0 1014.3 -0.3 87
2018-08-28 03:00:00 23.3 15 Sur 29 Sur 0 1014.3 -0.2 89
2018-08-28 02:00:00 23.4 23 Sur 38 Sur 0 1014.9 1.2 89
2018-08-28 01:00:00 23.3 25 Sur 41 Sur 0 1014.6 2.3 89
2018-08-28 00:00:00 23.7 30 Sur 57 Sur 0 1014.5 3.5 89
2018-08-27 23:00:00 23.5 38 Sur 55 Sur 0 1013.7 3.4 89
2018-08-27 22:00:00 26.8 33 Sudeste 47 Sudeste 0 1012.3 2.1 66
2018-08-27 21:00:00 26 23 Sur 37 Sur 0 1011 1.1 74
2018-08-27 20:00:00 27.4 23 Sur 35 Sudeste 0 1010.3 0.3 65
2018-08-27 19:00:00 29.9 27 Sudeste 42 Sudeste 0 1010.2 0.1 50
2018-08-27 18:00:00 29.9 29 Sudeste 57 Sudeste 0 1009.9 -1.1 50
2018-08-27 17:00:00 29.7 35 Sudeste 51 Sudeste 0 1010 -0.3 50
2018-08-27 16:00:00 29.9 27 Este 52 Sudeste 0 1010.1 -0.1 51
2018-08-27 15:00:00 32.2 18 Este 49 Sudeste 0 1011 0.1 44
2018-08-27 14:00:00 30.8 37 Este 60 Este 0 1010.3 -0.5 46
2018-08-27 13:00:00 29.8 41 Este 58 Este 0 1010.2 -0.1 50
2018-08-27 12:00:00 28.4 16 Este 35 Sudeste 0 1010.9 0.6 52
2018-08-27 11:00:00 28.8 30 Este 47 Este 0 1010.8 1 52
2018-08-27 10:00:00 28.1 14 Este 50 Este 0 1010.3 1 53
2018-08-27 09:00:00 26.5 29 Este 42 Este 0 1010.3 1.3 57
2018-08-27 08:00:00 26 27 Este 42 Este 0 1009.8 0 59
2018-08-27 07:00:00 26 29 Este 43 Sudeste 0 1009.3 -0.9 55
2018-08-27 06:00:00 25.9 23 Este 33 Este 0 1009 -1.5 57
2018-08-27 05:00:00 25.9 24 Este 37 Este 0 1009.8 -1.1 57
2018-08-27 04:00:00 25.7 8 Este 23 Este 0 1010.2 -1 59
2018-08-27 03:00:00 25.6 10 Este 22 Este 0 1010.5 -0.8 63
2018-08-27 02:00:00 26.2 8 Este 38 Este 0 1010.9 -0.7 61
2018-08-27 01:00:00 26.2 21 Este 30 Este 0 1011.2 -0.1 62
2018-08-27 00:00:00 26.2 11 Este 26 Este 0 1011.3 0.3 60
2018-08-26 23:00:00 26.8 9 Este 23 Este 0 1011.6 0.6 57
2018-08-26 22:00:00 27.6 12 Este 25 Sudeste 0 1011.3 -0.1 57
2018-08-26 21:00:00 25.8 6 Norte 15 Norte 0 1011 -0.2 68
2018-08-26 20:00:00 27.7 10 Noroeste 18 Noroeste 0 1011 -0.6 57
2018-08-26 19:00:00 27.7 10 Oeste 14 Noroeste 0 1011.4 -0.8 56
2018-08-26 18:00:00 27.9 10 Noroeste 16 Oeste 0 1011.2 -1.4 56
2018-08-26 17:00:00 27.7 10 Oeste 18 Oeste 0 1011.6 -1.2 56
2018-08-26 16:00:00 27.9 11 Oeste 20 Oeste 0 1012.2 -1.1 53
2018-08-26 15:00:00 27.6 11 Oeste 17 Oeste 0 1012.6 -0.8 47
2018-08-26 14:00:00 27.2 10 Sudoeste 15 Sudoeste 0 1012.8 -0.2 53
2018-08-26 13:00:00 26.1 8 Sudoeste 13 Sudoeste 0 1013.3 0.8 59
2018-08-26 12:00:00 24.8 7 Sur 13 Sur 0 1013.4 1.3 72
2018-08-26 11:00:00 23.4 8 Sur 14 Sur 0 1013 1.2 79
2018-08-26 10:00:00 21.6 7 Este 14 Sudeste 0 1012.5 1.3 90
2018-08-26 09:00:00 20.9 9 Sudeste 22 Sudeste 0 1012.1 1.1 93
2018-08-26 08:00:00 21.3 13 Sudeste 20 Sudeste 0 1011.8 0.7 93
2018-08-26 07:00:00 22 9 Sur 23 Sur 0.1 1011.2 -0.1 93
2018-08-26 06:00:00 21.8 13 Sur 21 Sur 0 1011 -0.4 93
2018-08-26 05:00:00 22.7 7 Sur 14 Sur 0 1011.1 -0.6 90
2018-08-26 04:00:00 23.3 3 Sudoeste 8 Sur 0 1011.3 -0.8 90
2018-08-26 03:00:00 23.6 3 Sudeste 17 Sudeste 0 1011.4 -0.6 90
2018-08-26 02:00:00 23.8 8 Sur 11 Sur 0 1011.7 0 90
2018-08-26 01:00:00 23.8 4 Sudoeste 8 Sur 0 1012.1 0.8 89
2018-08-26 00:00:00 24 3 Sur 9 Sur 0 1012 1.1 88
2018-08-25 23:00:00 24.4 2 Sudeste 5 Sudoeste 0 1011.7 0.9 86
2018-08-25 22:00:00 24.3 4 Sudoeste 8 Sudoeste 0 1011.3 0.4 85
2018-08-25 21:00:00 24.9 4 Sudoeste 14 Sudoeste 0 1010.9 -0.4 80
2018-08-25 20:00:00 25.9 9 Sudoeste 19 Sudoeste 0 1010.8 -0.9 76
2018-08-25 19:00:00 26.6 12 Sudoeste 19 Sudoeste 0 1010.9 -1.6 73
2018-08-25 18:00:00 26.9 12 Sudoeste 19 Oeste 0 1011.3 -1.8 68
2018-08-25 17:00:00 27.2 9 Sudoeste 15 Sur 0 1011.7 -1.8 66
2018-08-25 16:00:00 25.7 11 Sur 19 Sudoeste 0 1012.5 -1.4 73
2018-08-25 15:00:00 24.6 12 Sudoeste 25 Sur 0 1013.1 -1 77
2018-08-25 14:00:00 24.2 14 Sur 25 Sur 0 1013.5 -0.6 79
2018-08-25 13:00:00 23.9 14 Sur 25 Sur 0 1013.9 0.3 78
2018-08-25 12:00:00 24.3 12 Sur 26 Sur 0 1014.1 0.9 78
2018-08-25 11:00:00 23.7 16 Sur 26 Sur 0 1014.1 1.3 82
2018-08-25 10:00:00 22.8 11 Sur 21 Sur 0 1013.6 1.1 89
2018-08-25 09:00:00 23.6 9 Sur 15 Sur 0 1013.2 0.6 91
2018-08-25 08:00:00 23.4 10 Sur 14 Sur 0 1012.8 0 90
2018-08-25 07:00:00 23.8 4 Sur 7 Sur 0 1012.5 -0.8 90
2018-08-25 06:00:00 23.9 3 Sudoeste 6 Sudoeste 0 1012.6 -1.2 88
2018-08-25 05:00:00 24.3 5 Sudoeste 10 Sudoeste 0 1012.8 -1.3 85
2018-08-25 04:00:00 23.8 8 Sur 12 Sur 0 1013.3 -1 81
2018-08-25 03:00:00 24.5 3 Sur 7 Sudeste 0 1013.8 -0.4 78
2018-08-25 02:00:00 24.9 5 Sudeste 9 Sur 0 1014.1 -0.2 78
2018-08-25 01:00:00 25.4 0 Calma 8 Sudeste 0 1014.3 0.3 76
2018-08-25 00:00:00 24.8 0 Calma 7 Norte 0 1014.2 0.5 72
2018-08-24 23:00:00 24.4 5 Norte 13 Noroeste 0 1014.3 0.6 84
2018-08-24 22:00:00 25.5 11 Noroeste 17 Noroeste 0 1014 0.1 74
2018-08-24 21:00:00 26.2 13 Oeste 20 Oeste 0 1013.7 -0.6 68
2018-08-24 20:00:00 27.6 10 Oeste 15 Oeste 0 1013.7 -1.1 55
2018-08-24 19:00:00 28.3 12 Noroeste 19 Oeste 0 1013.9 -1.4 50
2018-08-24 18:00:00 29.4 12 Oeste 18 Noroeste 0 1014.3 -1.6 45
2018-08-24 17:00:00 28.7 12 Oeste 20 Oeste 0 1014.8 -1.5 50
2018-08-24 16:00:00 30 12 Oeste 24 Sudoeste 0 1015.3 -1.4 47
2018-08-24 15:00:00 28.1 17 Oeste 25 Oeste 0 1015.9 -0.6 55
2018-08-24 14:00:00 27.5 16 Oeste 26 Oeste 0 1016.3 -0.1 60
2018-08-24 13:00:00 27.4 12 Oeste 19 Sudoeste 0 1016.7 0.5 58
2018-08-24 12:00:00 27.6 10 Sudoeste 16 Sudoeste 0 1016.5 0.9 59
2018-08-24 11:00:00 27 7 Sudoeste 15 Oeste 0 1016.4 1.2 58
2018-08-24 10:00:00 25.6 5 Sudoeste 10 Sur 0 1016.2 1.2 58
2018-08-24 09:00:00 24.1 2 Sur 4 Sur 0 1015.6 0.8 69
2018-08-24 08:00:00 23.2 0 Calma 3 Nordeste 0 1015.2 0.1 76
2018-08-24 07:00:00 23.2 0 Calma 2 Nordeste 0 1015 -0.4 77
2018-08-24 06:00:00 23.8 0 Calma 5 Este 0 1014.8 -0.7 79
2018-08-24 05:00:00 24.4 2 Sudeste 5 Sudeste 0 1015.1 -0.8 74
2018-08-24 04:00:00 24.2 3 Sudeste 6 Sur 0 1015.4 -1 78
2018-08-24 03:00:00 24.3 2 Sur 7 Sudeste 0 1015.5 -0.8 75
2018-08-24 02:00:00 24.7 6 Sur 12 Sudeste 0 1015.9 -0.5 84
2018-08-24 01:00:00 24.9 5 Sur 6 Sur 0 1016.4 0.4 84
2018-08-24 00:00:00 24.9 4 Sur 10 Sur 0 1016.3 1 84